Colorado Springs, CO (80901)

9:22 AM MST on February 13, 2016 (GMT -0700)
Crown Hill Mesa | | Change Station
CLOSE
Current Station
Personal Weather Station
Location: Colorado Springs, CO
Elevation: 6171 ft
Nearby Weather Stations

Elev 6171 ft 38.82 °N, 104.85 °W | Updated 6 seconds ago

Partly Cloudy
Partly Cloudy
46.0 °F
Feels Like 44 °F
N
4.3
Wind Variable Wind from NW
Gusts 7.4 mph

Today
High -- | Low -- °F
--% Chance of Precip.
Yesterday
High -- | Low -- °F
Precip. -- in
Pressure 30.12 in
Visibility 10.0 miles
Clouds Scattered Clouds 20000 ft
Mostly Cloudy 25000 ft
Windchill 44 °F
Dew Point 30 °F
Humidity 54%
Rainfall 0.00 in
Snow Depth Not available.
6:53 AM 5:34 PM
Waxing Crescent, 32% visible
METAR KCOS 131554Z 30006KT 10SM SCT200 BKN250 03/M02 A3011 RMK AO2 SLP200 CCSL S AND W-NW T00331022
Pressure 30.12 in
Visibility 10.0 miles
Clouds Scattered Clouds 20000 ft
Mostly Cloudy 25000 ft
Windchill 44 °F
Dew Point 30 °F
Humidity 54%
Rainfall 0.00 in
Snow Depth Not available.
6:53 AM 5:34 PM
Waxing Crescent, 32% visible
METAR KCOS 131554Z 30006KT 10SM SCT200 BKN250 03/M02 A3011 RMK AO2 SLP200 CCSL S AND W-NW T00331022

10-Day Weather Forecast

Almanac

Astronomy

Feb. 13, 2016 Rise Set
Actual Time
Civil Twilight
Nautical Twilight
Astronomical Twilight
Moon
Length of Visible Light
Length of Day
Tomorrow will be .
, % of the Moon is Illuminated

Today's Extremes

State Highs State Lows

Community

WunderPhotos

Upload Photos

1,892,599 photos uploaded!

WunderBlog® & News

Nearby

Air Quality

  Air Quality AQ Index Pollutant
Not available.

Snow Depth

Station Depth Elevation

Earthquake Activity

City Distance Mag. Time & Date
Minimum magnitude displayed is 2.5.

Coastal Water Temperatures

Place Temperature

Stations

Nearby Weather Stations

Station Location Temp. Windchill Dew Point Humidity Wind Precip. Elev Updated Type
                   

Watches & Warnings

There are currently no watches in effect.